Somerset, NJ - U.S.A.

40° 30' 13"N, 74° 29' 17"W, Elevation 55 ft.

Monday, March 30, 2015
9:56:00 PM (Eastern)

89th day of the year

Updated and refreshed every 2 minutes. Weather computer in use: Davis Vantage PRO2 Plus


Current Weather:

Current Today's Highs and Lows
Temperature 43.7°F (6.5°C) ↑ 53.8° 3:24 PM
33.0° 12:00 AM
Dew Point 27.9°F (-2.3°C) ↑ 36.0° 11:30 AM
15.0° 12:57 AM
Humidity 53% ↑ 83% 8:08 AM
36% 5:29 PM
Wind Gust NNW 5 mph N 20 3:36 PM
W 0 12:00 AM
Wind Speed NNW 0 mph
Calm (0)
NW 9 1:36 PM
W 0 12:00 AM
Precipitation 0.00" (0.00 mm) 1
Last 24 hours 0.00"
Instantaneous rate 0.00"/hr
Storm total 0.00"
0.00"2 12:00 AM
0.00"2 12:00 AM
Barometer 29.859" (1011.2 mb)
Rising
30.126" 12:00 AM
29.777" 4:14 PM
Wind Chill Gust 44°F (7°C) 54° 3:24 PM
27° 7:31 AM
Wind Chill Avg 44°F (7°C) 53° 3:24 PM
31° 1:51 AM
Heat Index 43°F (6.1°C) 53° 1:44 PM
33° 12:00 AM
Sunshine 0 W/m2
Sunshine minutes 383
895 1:40 PM
0 12:00 AM
UV Index  0.0 3.7 1:18 PM
0.0 12:00 AM
1. Daily total rainfall.
2. Maximum and minimum rainfall are the instantaneous rainfall rates.

'KSOM' METAR REPORT:

METAR KSOM 310156Z AUTO 35000KT 07/M02 A2986 RMK AO1 SLP112 T00651023 

Yesterday's Weather and More...

Webcam
EBWeather Image

Video - Last 3 Hours

Video - Yesterday

Video - Last 3 Days

NJ Region Surface Map
NJ Sfc Map

Weather Data from Somerset, NJ

Data generated by WxSolution Version 1.8.7, Build 2013.11.03.